Time;durP1;ratioP1;P1;durP2;ratioP2;P2;SDS_P1;SDS_P2;PMS_P1;PMS_P2;Temp;Humidity;BMP_temperature;BMP_pressure;BME280_temperature;BME280_humidity;BME280_pressure;Samples;Min_cycle;Max_cycle;Signal;HPM_P1;HPM_P2
2023/04/26 00:01:49;;;;;;;1.95;0.77;;;;;;;;;;10259942;28;20221;-78
2023/04/26 00:06:49;;;;;;;4.05;1.05;;;;;;;;;;10260377;28;20214;-78
2023/04/26 00:11:50;;;;;;;4.03;1.02;;;;;;;;;;10279960;28;20304;-76
2023/04/26 00:16:51;;;;;;;0.98;0.90;;;;;;;;;;10271317;28;21557;-78
2023/04/26 00:21:52;;;;;;;2.47;0.50;;;;;;;;;;10257054;28;20226;-79
2023/04/26 00:26:54;;;;;;;6.63;0.73;;;;;;;;;;10261130;28;20233;-76
2023/04/26 00:31:56;;;;;;;0.70;0.70;;;;;;;;;;10251471;28;20218;-79
2023/04/26 00:36:57;;;;;;;0.98;0.60;;;;;;;;;;10270270;28;20316;-75
2023/04/26 00:41:58;;;;;;;6.32;0.60;;;;;;;;;;10256087;28;20760;-78
2023/04/26 00:47:00;;;;;;;4.07;0.40;;;;;;;;;;10271578;28;20229;-78
2023/04/26 00:52:01;;;;;;;1.73;0.47;;;;;;;;;;10255636;28;20201;-78
2023/04/26 00:57:02;;;;;;;3.70;0.57;;;;;;;;;;10255672;28;20225;-78
2023/04/26 01:02:04;;;;;;;1.42;0.52;;;;;;;;;;10254742;28;20221;-76
2023/04/26 01:07:05;;;;;;;3.28;0.65;;;;;;;;;;10255157;28;20225;-77
2023/04/26 01:12:08;;;;;;;1.92;0.40;;;;;;;;;;10251039;28;20210;-77
2023/04/26 01:17:09;;;;;;;6.78;0.57;;;;;;;;;;10252903;28;20249;-76
2023/04/26 01:22:10;;;;;;;1.10;0.60;;;;;;;;;;10257263;28;20217;-79
2023/04/26 01:27:11;;;;;;;2.47;0.52;;;;;;;;;;10236512;28;20228;-77
2023/04/26 01:32:15;;;;;;;1.45;0.55;;;;;;;;;;10255495;28;20312;-77
2023/04/26 01:37:16;;;;;;;2.08;0.98;;;;;;;;;;10273870;28;20308;-78
2023/04/26 01:42:17;;;;;;;3.00;0.80;;;;;;;;;;10258592;28;20221;-77
2023/04/26 01:47:18;;;;;;;4.45;0.68;;;;;;;;;;10270051;28;20673;-79
2023/04/26 01:52:20;;;;;;;2.70;0.80;;;;;;;;;;10266466;28;20240;-78
2023/04/26 01:57:21;;;;;;;6.53;0.80;;;;;;;;;;10255398;28;20226;-77
2023/04/26 02:02:22;;;;;;;3.13;0.70;;;;;;;;;;10271667;28;20221;-78
2023/04/26 02:07:23;;;;;;;1.52;0.77;;;;;;;;;;10269755;28;20212;-78
2023/04/26 02:12:26;;;;;;;0.73;0.50;;;;;;;;;;10275427;28;20210;-79
2023/04/26 02:17:28;;;;;;;1.00;1.00;;;;;;;;;;10254989;28;20285;-77
2023/04/26 02:22:30;;;;;;;6.57;1.30;;;;;;;;;;10272176;28;20329;-78
2023/04/26 02:27:31;;;;;;;2.40;0.70;;;;;;;;;;10275301;28;20233;-78
2023/04/26 02:32:32;;;;;;;2.05;0.70;;;;;;;;;;10268813;28;20222;-78
2023/04/26 02:37:33;;;;;;;1.75;0.85;;;;;;;;;;10252997;28;20220;-77
2023/04/26 02:42:35;;;;;;;4.43;1.13;;;;;;;;;;10274646;28;20312;-79
2023/04/26 02:47:37;;;;;;;2.92;0.80;;;;;;;;;;10256997;28;20213;-78
2023/04/26 02:52:38;;;;;;;1.10;1.10;;;;;;;;;;10270071;28;20586;-78
2023/04/26 02:57:39;;;;;;;2.35;1.15;;;;;;;;;;10273782;28;20630;-78
2023/04/26 03:02:42;;;;;;;1.15;0.82;;;;;;;;;;10270451;28;20224;-78
2023/04/26 03:07:43;;;;;;;4.72;0.85;;;;;;;;;;10251566;28;20301;-80
2023/04/26 03:12:44;;;;;;;0.80;0.63;;;;;;;;;;10261924;28;20667;-76
2023/04/26 03:17:45;;;;;;;2.65;0.80;;;;;;;;;;10255501;28;20225;-79
2023/04/26 03:22:46;;;;;;;7.05;1.20;;;;;;;;;;10274912;28;20231;-79
2023/04/26 03:27:47;;;;;;;1.25;0.88;;;;;;;;;;10270767;28;20874;-75
2023/04/26 03:32:48;;;;;;;0.73;0.73;;;;;;;;;;10254555;28;20213;-74
2023/04/26 03:37:49;;;;;;;7.35;1.02;;;;;;;;;;10251836;28;20217;-78
2023/04/26 03:42:52;;;;;;;0.73;0.73;;;;;;;;;;10271804;28;20233;-79
2023/04/26 03:47:53;;;;;;;2.33;1.38;;;;;;;;;;10264195;28;20591;-77
2023/04/26 03:52:55;;;;;;;2.43;0.93;;;;;;;;;;10250763;28;20232;-78
2023/04/26 03:57:56;;;;;;;1.38;1.00;;;;;;;;;;10266447;28;20233;-78
2023/04/26 04:02:58;;;;;;;4.97;1.33;;;;;;;;;;10267483;28;20225;-75
2023/04/26 04:08:01;;;;;;;2.83;0.95;;;;;;;;;;10266487;28;20293;-74
2023/04/26 04:13:02;;;;;;;4.40;1.15;;;;;;;;;;10265664;28;20214;-77
2023/04/26 04:18:04;;;;;;;5.15;1.17;;;;;;;;;;10261697;28;20607;-76
2023/04/26 04:23:06;;;;;;;3.35;1.52;;;;;;;;;;10269828;28;20221;-77
2023/04/26 04:28:08;;;;;;;1.50;1.45;;;;;;;;;;10264237;28;20719;-75
2023/04/26 04:33:09;;;;;;;1.88;0.82;;;;;;;;;;10272834;28;20231;-77
2023/04/26 04:38:10;;;;;;;2.13;1.50;;;;;;;;;;10252299;28;20500;-76
2023/04/26 04:43:13;;;;;;;5.55;1.45;;;;;;;;;;10260797;28;20283;-76
2023/04/26 04:48:15;;;;;;;1.63;1.13;;;;;;;;;;10260137;28;21204;-76
2023/04/26 04:53:16;;;;;;;4.55;1.67;;;;;;;;;;10263107;28;20332;-77
2023/04/26 04:58:17;;;;;;;3.95;1.80;;;;;;;;;;10250480;28;20890;-78
2023/04/26 05:03:19;;;;;;;2.83;1.30;;;;;;;;;;10266977;28;20894;-77
2023/04/26 05:08:20;;;;;;;1.63;1.13;;;;;;;;;;10251250;28;20210;-79
2023/04/26 05:13:22;;;;;;;2.33;1.35;;;;;;;;;;10268339;28;20400;-78
2023/04/26 05:18:23;;;;;;;5.75;1.42;;;;;;;;;;10252128;28;20691;-77
2023/04/26 05:23:24;;;;;;;1.95;1.55;;;;;;;;;;10264516;28;20280;-76
2023/04/26 05:28:25;;;;;;;2.70;1.02;;;;;;;;;;10237979;28;20221;-77
2023/04/26 05:33:45;;;;;;;1.88;1.30;;;;;;;;;;10248011;28;20236;-77
2023/04/26 05:38:52;;;;;;;5.32;1.10;;;;;;;;;;10264250;28;20229;-77
2023/04/26 05:43:53;;;;;;;1.40;0.95;;;;;;;;;;10249497;28;20228;-76
2023/04/26 05:48:55;;;;;;;9.20;1.42;;;;;;;;;;10264442;28;20264;-78
2023/04/26 05:53:56;;;;;;;6.85;1.73;;;;;;;;;;10260326;28;20214;-77
2023/04/26 05:58:58;;;;;;;3.55;1.13;;;;;;;;;;10231596;28;20304;-76
2023/04/26 06:03:59;;;;;;;3.97;1.33;;;;;;;;;;10258212;28;20222;-76
2023/04/26 06:09:04;;;;;;;10.38;1.92;;;;;;;;;;10260221;28;22355;-75
2023/04/26 06:14:05;;;;;;;3.30;1.20;;;;;;;;;;10249115;28;20217;-77
2023/04/26 06:19:06;;;;;;;2.10;0.90;;;;;;;;;;10250870;28;20228;-74
2023/04/26 06:24:08;;;;;;;1.27;0.85;;;;;;;;;;10243932;28;20225;-76
2023/04/26 06:29:11;;;;;;;2.72;1.73;;;;;;;;;;10232041;28;20274;-77
2023/04/26 06:34:12;;;;;;;4.40;1.40;;;;;;;;;;10262455;28;20280;-76
2023/04/26 06:39:13;;;;;;;1.88;1.02;;;;;;;;;;10251205;28;20307;-77
2023/04/26 06:44:17;;;;;;;3.03;0.98;;;;;;;;;;10259375;28;20218;-77
2023/04/26 06:49:18;;;;;;;1.38;0.80;;;;;;;;;;10259101;28;20316;-78
2023/04/26 06:54:19;;;;;;;1.85;1.17;;;;;;;;;;10247168;28;20221;-77
2023/04/26 06:59:20;;;;;;;1.25;0.85;;;;;;;;;;10227792;28;20640;-76
2023/04/26 07:04:21;;;;;;;7.03;0.80;;;;;;;;;;10250125;28;20221;-75
2023/04/26 07:09:22;;;;;;;6.18;0.93;;;;;;;;;;10256386;28;20222;-78
2023/04/26 07:14:24;;;;;;;3.38;1.00;;;;;;;;;;10265912;28;20880;-76
2023/04/26 07:19:25;;;;;;;4.57;0.90;;;;;;;;;;10253625;28;20227;-79
2023/04/26 07:24:26;;;;;;;2.75;1.15;;;;;;;;;;10242714;28;20229;-76
2023/04/26 07:29:27;;;;;;;1.05;0.95;;;;;;;;;;10266182;28;20217;-77
2023/04/26 07:34:29;;;;;;;3.65;0.77;;;;;;;;;;10249054;28;20233;-77
2023/04/26 07:39:30;;;;;;;6.43;1.33;;;;;;;;;;10244594;28;20218;-77
2023/04/26 07:44:31;;;;;;;1.50;0.82;;;;;;;;;;10247143;28;20221;-78
2023/04/26 07:49:32;;;;;;;3.58;0.80;;;;;;;;;;10250502;28;20217;-78
2023/04/26 07:54:33;;;;;;;5.55;0.75;;;;;;;;;;10264959;28;20218;-79
2023/04/26 07:59:34;;;;;;;3.20;0.98;;;;;;;;;;10266274;28;20244;-77
2023/04/26 08:04:35;;;;;;;4.00;1.17;;;;;;;;;;10264481;28;20256;-78
2023/04/26 08:09:36;;;;;;;0.82;0.75;;;;;;;;;;10277224;28;20708;-78
2023/04/26 08:14:37;;;;;;;2.03;0.65;;;;;;;;;;10260310;28;20305;-77
2023/04/26 08:19:40;;;;;;;0.70;0.70;;;;;;;;;;10258476;28;20236;-79
2023/04/26 08:24:41;;;;;;;1.85;0.90;;;;;;;;;;10233042;28;20229;-78
2023/04/26 08:29:42;;;;;;;2.17;0.70;;;;;;;;;;10243390;28;20221;-78
2023/04/26 08:34:43;;;;;;;0.75;0.50;;;;;;;;;;10263443;28;20308;-78
2023/04/26 08:39:45;;;;;;;9.82;1.00;;;;;;;;;;10249299;28;20218;-76
2023/04/26 08:44:46;;;;;;;3.25;0.40;;;;;;;;;;10250354;28;20217;-75
2023/04/26 08:49:56;;;;;;;2.70;0.55;;;;;;;;;;10251185;28;20236;-77
2023/04/26 08:54:58;;;;;;;3.45;0.60;;;;;;;;;;10252820;28;20221;-76
2023/04/26 09:00:00;;;;;;;0.85;0.70;;;;;;;;;;10245996;28;20232;-76
2023/04/26 09:05:02;;;;;;;1.42;1.00;;;;;;;;;;10248491;28;20225;-74
2023/04/26 09:10:05;;;;;;;5.82;0.88;;;;;;;;;;10249267;28;20222;-77
2023/04/26 09:15:06;;;;;;;4.22;1.00;;;;;;;;;;10247651;28;20210;-77
2023/04/26 09:20:17;;;;;;;4.88;1.13;;;;;;;;;;10238310;28;20626;-76
2023/04/26 09:25:19;;;;;;;3.28;0.60;;;;;;;;;;10247593;28;20740;-77
2023/04/26 09:30:21;;;;;;;3.25;0.90;;;;;;;;;;10257702;28;20228;-78
2023/04/26 09:35:24;;;;;;;1.95;0.90;;;;;;;;;;10247069;28;20210;-76
2023/04/26 09:40:27;;;;;;;1.25;1.08;;;;;;;;;;10256848;28;20352;-75
2023/04/26 09:45:28;;;;;;;2.63;1.48;;;;;;;;;;10243243;28;20218;-76
2023/04/26 09:50:30;;;;;;;5.93;0.63;;;;;;;;;;10248371;28;20232;-77
2023/04/26 09:55:31;;;;;;;4.28;0.95;;;;;;;;;;10226502;28;20218;-78
2023/04/26 10:00:33;;;;;;;4.05;0.80;;;;;;;;;;10250621;28;20312;-75
2023/04/26 10:05:35;;;;;;;2.05;0.80;;;;;;;;;;10253558;28;20220;-79
2023/04/26 10:10:37;;;;;;;5.95;1.30;;;;;;;;;;10249450;28;20789;-76
2023/04/26 10:15:39;;;;;;;1.88;0.82;;;;;;;;;;10265427;28;20229;-77
2023/04/26 10:20:42;;;;;;;2.63;1.10;;;;;;;;;;10263220;28;20229;-77
2023/04/26 10:25:43;;;;;;;5.47;0.90;;;;;;;;;;10247339;28;20224;-78
2023/04/26 10:30:55;;;;;;;6.38;1.02;;;;;;;;;;10261827;28;20876;-77
2023/04/26 10:36:07;;;;;;;1.15;1.05;;;;;;;;;;10250339;28;20842;-77
2023/04/26 10:41:26;;;;;;;2.67;1.17;;;;;;;;;;10249564;28;20218;-78
2023/04/26 10:46:35;;;;;;;3.95;1.20;;;;;;;;;;10240166;28;20218;-76
2023/04/26 10:51:36;;;;;;;2.58;1.00;;;;;;;;;;10256078;28;20214;-78
2023/04/26 10:56:37;;;;;;;1.60;0.80;;;;;;;;;;10258789;28;20222;-77
2023/04/26 11:01:39;;;;;;;3.40;1.02;;;;;;;;;;10248417;28;20559;-77
2023/04/26 11:06:53;;;;;;;1.27;0.80;;;;;;;;;;10234523;28;20280;-78
2023/04/26 11:11:54;;;;;;;0.60;0.50;;;;;;;;;;10246505;28;20230;-77
2023/04/26 11:16:55;;;;;;;2.35;0.75;;;;;;;;;;10226790;28;20223;-78
2023/04/26 11:21:58;;;;;;;1.67;0.93;;;;;;;;;;10245612;28;20230;-77
2023/04/26 11:26:59;;;;;;;2.15;0.80;;;;;;;;;;10256179;28;20218;-77
2023/04/26 11:32:00;;;;;;;0.70;0.70;;;;;;;;;;10243242;28;21927;-75
2023/04/26 11:37:03;;;;;;;1.30;0.70;;;;;;;;;;10246202;28;20224;-78
2023/04/26 11:42:08;;;;;;;4.75;1.08;;;;;;;;;;10252110;28;20221;-76
2023/04/26 11:47:10;;;;;;;3.03;1.10;;;;;;;;;;10250637;28;20993;-76
2023/04/26 11:52:11;;;;;;;2.67;1.13;;;;;;;;;;10268330;28;20221;-79
2023/04/26 11:57:13;;;;;;;3.00;0.65;;;;;;;;;;10253941;28;20356;-81
2023/04/26 12:02:14;;;;;;;1.40;0.80;;;;;;;;;;10269959;28;20227;-78
2023/04/26 12:07:18;;;;;;;2.13;0.73;;;;;;;;;;10246835;28;20287;-78
2023/04/26 12:12:19;;;;;;;0.80;0.80;;;;;;;;;;10266148;28;20224;-79
2023/04/26 12:17:20;;;;;;;1.95;0.90;;;;;;;;;;10267065;28;20692;-78
2023/04/26 12:22:21;;;;;;;1.88;0.63;;;;;;;;;;10264004;28;20309;-78
2023/04/26 12:27:23;;;;;;;1.45;0.90;;;;;;;;;;10254488;28;20222;-78
2023/04/26 12:32:25;;;;;;;0.52;0.52;;;;;;;;;;10246781;28;20256;-78
2023/04/26 12:37:26;;;;;;;2.53;1.20;;;;;;;;;;10248193;28;20264;-78
2023/04/26 12:42:27;;;;;;;3.40;1.35;;;;;;;;;;10242292;28;20677;-79
2023/04/26 12:47:30;;;;;;;0.82;0.82;;;;;;;;;;10255130;28;20289;-79
2023/04/26 12:52:31;;;;;;;2.67;0.95;;;;;;;;;;10247439;28;20222;-79
2023/04/26 12:57:32;;;;;;;0.88;0.88;;;;;;;;;;10235766;28;20651;-77
2023/04/26 13:02:33;;;;;;;1.10;0.80;;;;;;;;;;10262161;28;20752;-77
2023/04/26 13:07:35;;;;;;;2.00;0.90;;;;;;;;;;10262438;28;20309;-76
2023/04/26 13:12:38;;;;;;;2.08;0.90;;;;;;;;;;10249314;28;20306;-78
2023/04/26 13:17:41;;;;;;;1.27;0.95;;;;;;;;;;10251824;28;20708;-79
2023/04/26 13:22:42;;;;;;;1.73;0.73;;;;;;;;;;10250654;28;20236;-77
2023/04/26 13:27:44;;;;;;;4.13;1.00;;;;;;;;;;10250433;28;20244;-79
2023/04/26 13:32:45;;;;;;;2.08;0.82;;;;;;;;;;10251207;28;20213;-79
2023/04/26 13:37:46;;;;;;;1.17;0.75;;;;;;;;;;10241442;28;20225;-78
2023/04/26 13:42:48;;;;;;;4.53;1.10;;;;;;;;;;10250494;28;20277;-78
2023/04/26 13:47:49;;;;;;;2.15;0.90;;;;;;;;;;10256834;28;20644;-78
2023/04/26 13:52:51;;;;;;;0.80;0.80;;;;;;;;;;10242897;28;20205;-79
2023/04/26 13:57:52;;;;;;;1.10;1.10;;;;;;;;;;10262136;28;21139;-79
2023/04/26 14:02:53;;;;;;;2.22;0.90;;;;;;;;;;10264314;28;20386;-76
2023/04/26 14:07:55;;;;;;;1.65;1.00;;;;;;;;;;10255634;28;20697;-79
2023/04/26 14:12:56;;;;;;;0.95;0.80;;;;;;;;;;10261298;28;20313;-80
2023/04/26 14:17:57;;;;;;;1.65;1.00;;;;;;;;;;10249928;28;21612;-77
2023/04/26 14:22:58;;;;;;;1.20;0.90;;;;;;;;;;10263124;28;20710;-77
2023/04/26 14:27:59;;;;;;;0.80;0.80;;;;;;;;;;10269390;28;20621;-77
2023/04/26 14:33:00;;;;;;;1.48;1.10;;;;;;;;;;10256904;28;20763;-76
2023/04/26 14:38:01;;;;;;;0.90;0.90;;;;;;;;;;10255493;28;20222;-78
2023/04/26 14:43:02;;;;;;;1.20;0.90;;;;;;;;;;10244956;28;20896;-75
2023/04/26 14:48:03;;;;;;;1.85;1.15;;;;;;;;;;10250498;28;20688;-78
2023/04/26 14:53:04;;;;;;;0.93;0.90;;;;;;;;;;10248579;28;20214;-78
2023/04/26 14:58:05;;;;;;;1.77;0.95;;;;;;;;;;10259048;28;20329;-77
2023/04/26 15:03:06;;;;;;;1.13;0.90;;;;;;;;;;10250483;28;20228;-77
2023/04/26 15:08:07;;;;;;;0.88;0.80;;;;;;;;;;10257183;28;20227;-78
2023/04/26 15:13:08;;;;;;;8.27;2.17;;;;;;;;;;10253580;28;20222;-78
2023/04/26 15:18:10;;;;;;;0.63;0.63;;;;;;;;;;10252692;28;21173;-77
2023/04/26 15:23:11;;;;;;;0.80;0.70;;;;;;;;;;10254187;28;20224;-77
2023/04/26 15:28:12;;;;;;;1.52;1.08;;;;;;;;;;10252115;28;20721;-79
2023/04/26 15:33:13;;;;;;;1.02;1.02;;;;;;;;;;10254720;28;20206;-76
2023/04/26 15:38:14;;;;;;;2.35;1.13;;;;;;;;;;10264819;28;20606;-78
2023/04/26 15:43:15;;;;;;;0.82;0.73;;;;;;;;;;10271176;28;20236;-78
2023/04/26 15:48:16;;;;;;;0.98;0.98;;;;;;;;;;10248621;28;20229;-78
2023/04/26 15:53:17;;;;;;;1.13;0.80;;;;;;;;;;10251309;28;20217;-77
2023/04/26 15:58:18;;;;;;;1.38;0.80;;;;;;;;;;10254224;28;21348;-74
2023/04/26 16:03:20;;;;;;;2.60;1.17;;;;;;;;;;10242760;28;20217;-76
2023/04/26 16:08:21;;;;;;;2.15;1.10;;;;;;;;;;10262371;28;20213;-77
2023/04/26 16:13:22;;;;;;;1.05;1.05;;;;;;;;;;10253604;28;20692;-76
2023/04/26 16:18:23;;;;;;;1.13;0.95;;;;;;;;;;10245424;28;20225;-74
2023/04/26 16:23:25;;;;;;;4.40;1.10;;;;;;;;;;10265236;28;20229;-76
2023/04/26 16:28:26;;;;;;;3.17;1.38;;;;;;;;;;10255486;28;20225;-77
2023/04/26 16:33:27;;;;;;;2.83;1.40;;;;;;;;;;10249156;28;20217;-77
2023/04/26 16:38:28;;;;;;;1.13;1.05;;;;;;;;;;10253958;28;20217;-78
2023/04/26 16:43:30;;;;;;;2.40;1.20;;;;;;;;;;10256661;28;20969;-78
2023/04/26 16:48:32;;;;;;;2.80;1.15;;;;;;;;;;10240856;28;20229;-76
2023/04/26 16:53:33;;;;;;;0.90;0.90;;;;;;;;;;10250720;28;20858;-79
2023/04/26 16:58:34;;;;;;;0.80;0.80;;;;;;;;;;10256562;28;20262;-78
2023/04/26 17:03:35;;;;;;;1.00;1.00;;;;;;;;;;10258912;28;20832;-77
2023/04/26 17:08:36;;;;;;;2.15;1.30;;;;;;;;;;10237569;28;21015;-79
2023/04/26 17:13:37;;;;;;;2.05;0.82;;;;;;;;;;10274474;28;20344;-78
2023/04/26 17:18:38;;;;;;;0.70;0.70;;;;;;;;;;10255378;28;20217;-78
2023/04/26 17:23:39;;;;;;;0.90;0.88;;;;;;;;;;10255845;28;20209;-77
2023/04/26 17:28:40;;;;;;;4.53;1.00;;;;;;;;;;10276305;28;20221;-78
2023/04/26 17:33:42;;;;;;;1.05;0.95;;;;;;;;;;10250475;28;20221;-78
2023/04/26 17:38:43;;;;;;;2.42;1.08;;;;;;;;;;10244687;28;20299;-78
2023/04/26 17:43:44;;;;;;;2.15;1.02;;;;;;;;;;10253368;28;20233;-77
2023/04/26 17:48:45;;;;;;;2.08;0.80;;;;;;;;;;10266217;28;20714;-79
2023/04/26 17:53:46;;;;;;;1.02;1.02;;;;;;;;;;10262445;28;20213;-78
2023/04/26 17:58:48;;;;;;;3.42;1.17;;;;;;;;;;10252058;28;20266;-78
2023/04/26 18:03:49;;;;;;;1.02;0.93;;;;;;;;;;10255436;28;21614;-77
2023/04/26 18:08:50;;;;;;;4.55;0.95;;;;;;;;;;10256873;28;20213;-78
2023/04/26 18:13:51;;;;;;;2.90;1.27;;;;;;;;;;10269871;28;20221;-78
2023/04/26 18:18:52;;;;;;;2.55;1.10;;;;;;;;;;10254816;28;20385;-79
2023/04/26 18:23:53;;;;;;;1.55;0.90;;;;;;;;;;10241930;28;20794;-80
2023/04/26 18:28:54;;;;;;;1.85;1.25;;;;;;;;;;10257610;28;20248;-78
2023/04/26 18:33:55;;;;;;;2.17;1.15;;;;;;;;;;10245459;28;20330;-79
2023/04/26 18:38:56;;;;;;;1.02;1.02;;;;;;;;;;10238401;28;20225;-79
2023/04/26 18:43:58;;;;;;;1.95;1.20;;;;;;;;;;10243434;28;20233;-78
2023/04/26 18:49:00;;;;;;;2.25;1.20;;;;;;;;;;10241912;28;20230;-79
2023/04/26 18:54:01;;;;;;;1.63;1.42;;;;;;;;;;10258063;28;20213;-79
2023/04/26 18:59:02;;;;;;;2.85;1.90;;;;;;;;;;10241573;28;20221;-78
2023/04/26 19:04:03;;;;;;;3.13;1.20;;;;;;;;;;10227868;28;20252;-78
2023/04/26 19:09:05;;;;;;;1.15;1.10;;;;;;;;;;10240814;28;20234;-78
2023/04/26 19:14:06;;;;;;;5.10;2.22;;;;;;;;;;10243673;28;20230;-78
2023/04/26 19:19:07;;;;;;;4.30;1.67;;;;;;;;;;10240287;28;20300;-75
2023/04/26 19:24:08;;;;;;;2.35;1.42;;;;;;;;;;10244435;28;20622;-78
2023/04/26 19:29:10;;;;;;;2.88;2.03;;;;;;;;;;10254925;28;20894;-77
2023/04/26 19:34:11;;;;;;;3.42;1.75;;;;;;;;;;10247760;28;20217;-78
2023/04/26 19:39:12;;;;;;;1.70;1.60;;;;;;;;;;10242771;28;20264;-77
2023/04/26 19:44:13;;;;;;;6.32;1.70;;;;;;;;;;10249699;28;20606;-76
2023/04/26 19:49:14;;;;;;;4.82;1.83;;;;;;;;;;10254838;28;20237;-75
2023/04/26 19:54:18;;;;;;;2.75;2.38;;;;;;;;;;10230619;28;20700;-78
2023/04/26 19:59:19;;;;;;;5.05;1.77;;;;;;;;;;10255830;28;20230;-77
2023/04/26 20:04:20;;;;;;;5.03;1.58;;;;;;;;;;10261416;28;20220;-77
2023/04/26 20:09:21;;;;;;;7.97;2.00;;;;;;;;;;10271271;28;20245;-77
2023/04/26 20:14:23;;;;;;;1.58;1.50;;;;;;;;;;10263037;28;20224;-77
2023/04/26 20:19:24;;;;;;;8.57;1.60;;;;;;;;;;10259707;28;20229;-78
2023/04/26 20:24:28;;;;;;;2.75;1.27;;;;;;;;;;10274141;28;20371;-77
2023/04/26 20:29:29;;;;;;;2.10;1.73;;;;;;;;;;10274165;28;20218;-78
2023/04/26 20:34:31;;;;;;;2.42;1.77;;;;;;;;;;10274678;28;20209;-76
2023/04/26 20:39:32;;;;;;;2.53;1.70;;;;;;;;;;10274471;28;20230;-77
2023/04/26 20:44:34;;;;;;;3.63;1.65;;;;;;;;;;10260083;28;20271;-78
2023/04/26 20:49:35;;;;;;;2.35;1.63;;;;;;;;;;10260978;28;20222;-79
2023/04/26 20:54:36;;;;;;;1.80;1.70;;;;;;;;;;10275237;28;20215;-77
2023/04/26 20:59:39;;;;;;;4.10;2.13;;;;;;;;;;10266323;28;20399;-78
2023/04/26 21:04:41;;;;;;;1.90;1.80;;;;;;;;;;10257957;28;20645;-77
2023/04/26 21:09:42;;;;;;;1.77;1.45;;;;;;;;;;10259289;28;20272;-77
2023/04/26 21:14:44;;;;;;;2.25;1.60;;;;;;;;;;10255444;28;20683;-76
2023/04/26 21:19:46;;;;;;;1.80;1.70;;;;;;;;;;10255184;28;20219;-77
2023/04/26 21:24:50;;;;;;;1.33;1.33;;;;;;;;;;10252220;28;20300;-78
2023/04/26 21:29:51;;;;;;;2.58;1.70;;;;;;;;;;10259412;28;20373;-77
2023/04/26 21:34:52;;;;;;;1.50;1.40;;;;;;;;;;10273415;28;20306;-78
2023/04/26 21:39:53;;;;;;;2.60;1.70;;;;;;;;;;10251675;28;20244;-75
2023/04/26 21:44:55;;;;;;;2.30;1.50;;;;;;;;;;10269719;28;20283;-77
2023/04/26 21:49:56;;;;;;;2.40;1.55;;;;;;;;;;10252970;28;20218;-77
2023/04/26 21:54:57;;;;;;;2.47;1.73;;;;;;;;;;10251448;28;20217;-78
2023/04/26 21:59:58;;;;;;;2.38;2.17;;;;;;;;;;10256026;28;20231;-78
2023/04/26 22:04:59;;;;;;;1.70;1.60;;;;;;;;;;10249428;28;20785;-79
2023/04/26 22:10:00;;;;;;;1.70;1.70;;;;;;;;;;10266393;28;20921;-78
2023/04/26 22:15:01;;;;;;;2.08;1.35;;;;;;;;;;10250309;28;20893;-78
2023/04/26 22:20:02;;;;;;;1.33;1.33;;;;;;;;;;10250071;28;20244;-77
2023/04/26 22:25:03;;;;;;;6.28;1.45;;;;;;;;;;10227419;28;20761;-78
2023/04/26 22:30:06;;;;;;;2.55;1.45;;;;;;;;;;10264170;28;20256;-75
2023/04/26 22:35:07;;;;;;;3.38;1.52;;;;;;;;;;10252686;28;20207;-78
2023/04/26 22:40:10;;;;;;;2.00;1.25;;;;;;;;;;10248012;28;20204;-77
2023/04/26 22:45:11;;;;;;;1.27;1.25;;;;;;;;;;10250131;28;20300;-76
2023/04/26 22:50:12;;;;;;;3.95;1.50;;;;;;;;;;10240154;28;20243;-77
2023/04/26 22:55:14;;;;;;;2.42;1.55;;;;;;;;;;10244857;28;20248;-78
2023/04/26 23:00:15;;;;;;;2.35;1.42;;;;;;;;;;10209084;28;1289993;-77
2023/04/26 23:05:16;;;;;;;1.63;1.25;;;;;;;;;;10254720;28;20209;-78
2023/04/26 23:10:17;;;;;;;1.23;1.23;;;;;;;;;;10250666;28;20357;-78
2023/04/26 23:15:18;;;;;;;2.78;1.52;;;;;;;;;;10250722;28;20992;-77
2023/04/26 23:20:19;;;;;;;3.35;1.67;;;;;;;;;;10258319;28;20244;-78
2023/04/26 23:25:20;;;;;;;2.03;1.88;;;;;;;;;;10253566;28;20221;-76
2023/04/26 23:30:21;;;;;;;2.65;1.42;;;;;;;;;;10254270;28;20214;-78
2023/04/26 23:35:22;;;;;;;2.25;2.03;;;;;;;;;;10254906;28;20206;-78
2023/04/26 23:40:23;;;;;;;4.63;1.90;;;;;;;;;;10249609;28;20217;-77
2023/04/26 23:45:25;;;;;;;5.88;2.38;;;;;;;;;;10265641;28;20240;-75
2023/04/26 23:50:26;;;;;;;2.40;2.20;;;;;;;;;;10262353;28;20292;-79
2023/04/26 23:55:27;;;;;;;3.08;2.20;;;;;;;;;;10256679;28;20292;-77
